sensor_id;sensor_type;location;lat;lon;timestamp;pressure;altitude;pressure_sealevel;temperature;humidity
25638;BME280;13496;51.040;13.680;2023-01-26T00:01:20;100478.09;;;16.13;56.15
25638;BME280;13496;51.040;13.680;2023-01-26T00:06:22;100486.09;;;16.12;56.18
25638;BME280;13496;51.040;13.680;2023-01-26T00:11:25;100480.72;;;16.13;56.21
25638;BME280;13496;51.040;13.680;2023-01-26T00:16:27;100478.22;;;16.12;56.05
25638;BME280;13496;51.040;13.680;2023-01-26T00:21:29;100477.94;;;16.15;56.11
25638;BME280;13496;51.040;13.680;2023-01-26T00:26:31;100474.63;;;16.13;56.26
25638;BME280;13496;51.040;13.680;2023-01-26T00:31:32;100470.25;;;16.13;56.24
25638;BME280;13496;51.040;13.680;2023-01-26T00:36:34;100470.25;;;16.13;55.89
25638;BME280;13496;51.040;13.680;2023-01-26T00:41:38;100456.31;;;16.13;56.17
25638;BME280;13496;51.040;13.680;2023-01-26T00:46:58;100452.06;;;16.12;56.18
25638;BME280;13496;51.040;13.680;2023-01-26T00:52:02;100452.88;;;16.12;55.92
25638;BME280;13496;51.040;13.680;2023-01-26T00:57:04;100456.31;;;16.13;55.99
25638;BME280;13496;51.040;13.680;2023-01-26T01:02:06;100451.06;;;16.13;55.95
25638;BME280;13496;51.040;13.680;2023-01-26T01:07:09;100455.34;;;16.14;55.98
25638;BME280;13496;51.040;13.680;2023-01-26T01:12:11;100447.63;;;16.12;55.84
25638;BME280;13496;51.040;13.680;2023-01-26T01:17:13;100452.06;;;16.12;56.37
25638;BME280;13496;51.040;13.680;2023-01-26T01:22:15;100447.13;;;16.09;55.97
25638;BME280;13496;51.040;13.680;2023-01-26T01:27:16;100449.44;;;16.12;56.04
25638;BME280;13496;51.040;13.680;2023-01-26T01:32:19;100450.59;;;16.09;55.94
25638;BME280;13496;51.040;13.680;2023-01-26T01:37:21;100445.19;;;16.11;55.90
25638;BME280;13496;51.040;13.680;2023-01-26T01:42:24;100432.09;;;16.11;55.90
25638;BME280;13496;51.040;13.680;2023-01-26T01:47:25;100431.13;;;16.12;55.92
25638;BME280;13496;51.040;13.680;2023-01-26T01:52:29;100412.78;;;16.12;55.80
25638;BME280;13496;51.040;13.680;2023-01-26T01:57:38;100404.94;;;16.12;55.66
25638;BME280;13496;51.040;13.680;2023-01-26T02:03:05;100389.22;;;16.12;55.86
25638;BME280;13496;51.040;13.680;2023-01-26T02:08:25;100397.25;;;16.10;55.61
25638;BME280;13496;51.040;13.680;2023-01-26T02:13:30;100391.19;;;16.10;55.74
25638;BME280;13496;51.040;13.680;2023-01-26T02:18:33;100389.22;;;16.12;55.61
25638;BME280;13496;51.040;13.680;2023-01-26T02:28:46;100371.06;;;16.10;55.65
25638;BME280;13496;51.040;13.680;2023-01-26T02:33:48;100355.50;;;16.09;55.78
25638;BME280;13496;51.040;13.680;2023-01-26T02:38:57;100352.75;;;16.10;55.73
25638;BME280;13496;51.040;13.680;2023-01-26T02:44:02;100346.69;;;16.10;55.71
25638;BME280;13496;51.040;13.680;2023-01-26T02:49:04;100328.38;;;16.10;55.61
25638;BME280;13496;51.040;13.680;2023-01-26T02:54:25;100328.38;;;16.10;55.65
25638;BME280;13496;51.040;13.680;2023-01-26T02:59:45;100322.47;;;16.08;55.52
25638;BME280;13496;51.040;13.680;2023-01-26T03:04:48;100328.53;;;16.08;55.58
25638;BME280;13496;51.040;13.680;2023-01-26T03:09:50;100328.38;;;16.10;55.74
25638;BME280;13496;51.040;13.680;2023-01-26T03:14:52;100330.19;;;16.09;55.56
25638;BME280;13496;51.040;13.680;2023-01-26T03:20:12;100324.09;;;16.09;55.34
25638;BME280;13496;51.040;13.680;2023-01-26T03:25:33;100310.19;;;16.08;55.56
25638;BME280;13496;51.040;13.680;2023-01-26T03:30:55;100318.88;;;16.09;55.44
25638;BME280;13496;51.040;13.680;2023-01-26T03:35:59;100318.88;;;16.09;55.55
25638;BME280;13496;51.040;13.680;2023-01-26T03:41:01;100319.22;;;16.06;55.50
25638;BME280;13496;51.040;13.680;2023-01-26T03:46:21;100315.59;;;16.07;55.60
25638;BME280;13496;51.040;13.680;2023-01-26T03:51:45;100313.97;;;16.06;55.55
25638;BME280;13496;51.040;13.680;2023-01-26T03:57:06;100308.88;;;16.04;55.34
25638;BME280;13496;51.040;13.680;2023-01-26T04:02:10;100294.81;;;16.05;55.43
25638;BME280;13496;51.040;13.680;2023-01-26T04:07:31;100288.75;;;16.05;55.42
25638;BME280;13496;51.040;13.680;2023-01-26T04:12:52;100290.41;;;16.06;55.34
25638;BME280;13496;51.040;13.680;2023-01-26T04:18:14;100288.75;;;16.05;55.70
25638;BME280;13496;51.040;13.680;2023-01-26T04:23:34;100286.94;;;16.05;55.37
25638;BME280;13496;51.040;13.680;2023-01-26T04:28:36;100281.56;;;16.07;55.45
25638;BME280;13496;51.040;13.680;2023-01-26T04:33:40;100279.94;;;16.06;55.48
25638;BME280;13496;51.040;13.680;2023-01-26T04:38:42;100280.09;;;16.04;55.57
25638;BME280;13496;51.040;13.680;2023-01-26T04:43:45;100267.69;;;16.06;55.33
25638;BME280;13496;51.040;13.680;2023-01-26T04:48:47;100265.19;;;16.05;55.41
25638;BME280;13496;51.040;13.680;2023-01-26T04:53:49;100251.28;;;16.04;55.52
25638;BME280;13496;51.040;13.680;2023-01-26T04:58:53;100255.72;;;16.04;55.59
25638;BME280;13496;51.040;13.680;2023-01-26T05:04:01;100259.97;;;16.05;55.25
25638;BME280;13496;51.040;13.680;2023-01-26T05:09:04;100264.25;;;16.06;55.37
25638;BME280;13496;51.040;13.680;2023-01-26T05:14:08;100272.91;;;16.06;55.15
25638;BME280;13496;51.040;13.680;2023-01-26T05:19:31;100276.34;;;16.07;55.25
25638;BME280;13496;51.040;13.680;2023-01-26T05:24:59;100273.88;;;16.05;55.50
25638;BME280;13496;51.040;13.680;2023-01-26T05:30:09;100274.72;;;16.06;55.45
25638;BME280;13496;51.040;13.680;2023-01-26T05:35:12;100277.47;;;16.04;55.73
25638;BME280;13496;51.040;13.680;2023-01-26T05:40:15;100282.88;;;16.03;55.81
25638;BME280;13496;51.040;13.680;2023-01-26T05:45:17;100277.47;;;16.04;55.83
25638;BME280;13496;51.040;13.680;2023-01-26T05:50:19;100282.88;;;16.03;55.89
25638;BME280;13496;51.040;13.680;2023-01-26T05:55:42;100274.03;;;16.04;55.90
25638;BME280;13496;51.040;13.680;2023-01-26T06:00:45;100280.91;;;16.05;56.14
25638;BME280;13496;51.040;13.680;2023-01-26T06:05:54;100269.78;;;16.03;55.92
25638;BME280;13496;51.040;13.680;2023-01-26T06:11:05;100271.59;;;16.02;56.04
25638;BME280;13496;51.040;13.680;2023-01-26T06:16:22;100270.09;;;16.00;56.22
25638;BME280;13496;51.040;13.680;2023-01-26T06:21:25;100284.00;;;16.00;56.28
25638;BME280;13496;51.040;13.680;2023-01-26T06:26:27;100290.22;;;15.99;56.05
25638;BME280;13496;51.040;13.680;2023-01-26T06:31:31;100287.28;;;16.02;56.17
25638;BME280;13496;51.040;13.680;2023-01-26T06:36:35;100284.97;;;15.99;56.21
25638;BME280;13496;51.040;13.680;2023-01-26T06:41:42;100278.94;;;15.99;56.15
25638;BME280;13496;51.040;13.680;2023-01-26T06:46:47;100285.81;;;16.00;56.25
25638;BME280;13496;51.040;13.680;2023-01-26T06:51:55;100281.56;;;15.99;56.21
25638;BME280;13496;51.040;13.680;2023-01-26T06:57:07;100276.97;;;16.01;56.17
25638;BME280;13496;51.040;13.680;2023-01-26T07:02:29;100275.34;;;16.00;56.18
25638;BME280;13496;51.040;13.680;2023-01-26T07:07:31;100275.34;;;16.00;56.21
25638;BME280;13496;51.040;13.680;2023-01-26T07:12:40;100272.72;;;16.00;56.11
25638;BME280;13496;51.040;13.680;2023-01-26T07:17:42;100273.53;;;16.00;56.25
25638;BME280;13496;51.040;13.680;2023-01-26T07:22:44;100269.94;;;16.01;56.18
25638;BME280;13496;51.040;13.680;2023-01-26T07:27:46;100269.94;;;16.01;56.26
25638;BME280;13496;51.040;13.680;2023-01-26T07:32:47;100271.72;;;16.01;56.04
25638;BME280;13496;51.040;13.680;2023-01-26T07:37:49;100268.81;;;16.04;56.12
25638;BME280;13496;51.040;13.680;2023-01-26T07:42:50;100270.75;;;16.02;56.02
25638;BME280;13496;51.040;13.680;2023-01-26T07:48:16;100272.41;;;16.03;56.22
25638;BME280;13496;51.040;13.680;2023-01-26T07:53:18;100268.97;;;16.02;56.31
25638;BME280;13496;51.040;13.680;2023-01-26T07:58:19;100274.72;;;16.06;56.16
25638;BME280;13496;51.040;13.680;2023-01-26T08:03:23;100271.41;;;16.04;55.99
25638;BME280;13496;51.040;13.680;2023-01-26T08:08:25;100277.63;;;16.03;56.17
25638;BME280;13496;51.040;13.680;2023-01-26T08:13:27;100279.09;;;16.05;56.04
25638;BME280;13496;51.040;13.680;2023-01-26T08:18:29;100276.34;;;16.07;55.88
25638;BME280;13496;51.040;13.680;2023-01-26T08:23:31;100276.34;;;16.07;55.99
25638;BME280;13496;51.040;13.680;2023-01-26T08:28:33;100267.50;;;16.08;55.90
25638;BME280;13496;51.040;13.680;2023-01-26T08:33:36;100270.13;;;16.08;55.81
25638;BME280;13496;51.040;13.680;2023-01-26T08:38:38;100264.88;;;16.08;55.80
25638;BME280;13496;51.040;13.680;2023-01-26T08:43:39;100264.06;;;16.07;55.92
25638;BME280;13496;51.040;13.680;2023-01-26T08:48:41;100254.41;;;16.08;56.07
25638;BME280;13496;51.040;13.680;2023-01-26T08:53:43;100261.28;;;16.09;55.95
25638;BME280;13496;51.040;13.680;2023-01-26T08:58:44;100263.91;;;16.09;55.88
25638;BME280;13496;51.040;13.680;2023-01-26T09:03:46;100256.72;;;16.11;55.85
25638;BME280;13496;51.040;13.680;2023-01-26T09:08:48;100282.22;;;16.09;55.69
25638;BME280;13496;51.040;13.680;2023-01-26T09:13:50;100275.53;;;16.06;55.91
25638;BME280;13496;51.040;13.680;2023-01-26T09:18:57;100275.66;;;16.05;55.78
25638;BME280;13496;51.040;13.680;2023-01-26T09:23:58;100276.34;;;16.07;55.72
25638;BME280;13496;51.040;13.680;2023-01-26T09:29:00;100284.34;;;16.05;55.82
25638;BME280;13496;51.040;13.680;2023-01-26T09:34:02;100288.44;;;16.08;55.74
25638;BME280;13496;51.040;13.680;2023-01-26T09:39:04;100292.53;;;16.10;55.63
25638;BME280;13496;51.040;13.680;2023-01-26T09:44:18;100286.50;;;16.10;55.67
25638;BME280;13496;51.040;13.680;2023-01-26T09:49:25;100288.31;;;16.09;55.55
25638;BME280;13496;51.040;13.680;2023-01-26T09:54:40;100290.06;;;16.09;55.62
25638;BME280;13496;51.040;13.680;2023-01-26T10:00:06;100295.97;;;16.11;55.62
25638;BME280;13496;51.040;13.680;2023-01-26T10:05:17;100291.72;;;16.10;55.76
25638;BME280;13496;51.040;13.680;2023-01-26T10:10:27;100292.25;;;16.13;55.60
25638;BME280;13496;51.040;13.680;2023-01-26T10:15:37;100285.19;;;16.14;55.28
25638;BME280;13496;51.040;13.680;2023-01-26T10:20:46;100284.22;;;16.15;55.40
25638;BME280;13496;51.040;13.680;2023-01-26T10:25:49;100283.41;;;16.14;55.60
25638;BME280;13496;51.040;13.680;2023-01-26T10:30:53;100284.22;;;16.15;55.37
25638;BME280;13496;51.040;13.680;2023-01-26T10:35:54;100285.84;;;16.16;55.30
25638;BME280;13496;51.040;13.680;2023-01-26T10:40:58;100273.75;;;16.15;55.33
25638;BME280;13496;51.040;13.680;2023-01-26T10:46:02;100264.09;;;16.15;55.41
25638;BME280;13496;51.040;13.680;2023-01-26T10:51:15;100263.28;;;16.15;55.38
25638;BME280;13496;51.040;13.680;2023-01-26T10:56:17;100257.22;;;16.14;55.32
25638;BME280;13496;51.040;13.680;2023-01-26T11:01:18;100252.97;;;16.13;55.61
25638;BME280;13496;51.040;13.680;2023-01-26T11:06:27;100250.19;;;16.15;55.47
25638;BME280;13496;51.040;13.680;2023-01-26T11:11:29;100247.75;;;16.13;55.14
25638;BME280;13496;51.040;13.680;2023-01-26T11:16:31;100254.75;;;16.13;55.39
25638;BME280;13496;51.040;13.680;2023-01-26T11:21:40;100258.03;;;16.15;55.44
25638;BME280;13496;51.040;13.680;2023-01-26T11:42:45;100225.00;;;16.14;55.13
25638;BME280;13496;51.040;13.680;2023-01-26T11:48:19;100222.69;;;16.11;55.40
25638;BME280;13496;51.040;13.680;2023-01-26T11:58:43;100215.66;;;16.11;55.36
25638;BME280;13496;51.040;13.680;2023-01-26T12:03:49;100207.81;;;16.11;55.38
25638;BME280;13496;51.040;13.680;2023-01-26T12:09:03;100206.00;;;16.12;55.14
25638;BME280;13496;51.040;13.680;2023-01-26T12:19:31;100184.41;;;16.10;55.21
25638;BME280;13496;51.040;13.680;2023-01-26T12:24:42;100178.38;;;16.09;55.23
25638;BME280;13496;51.040;13.680;2023-01-26T12:29:50;100177.69;;;16.07;55.18
25638;BME280;13496;51.040;13.680;2023-01-26T12:34:56;100183.44;;;16.11;55.30
25638;BME280;13496;51.040;13.680;2023-01-26T12:40:20;100173.28;;;16.08;55.27
25638;BME280;13496;51.040;13.680;2023-01-26T12:45:27;100168.84;;;16.08;55.14
25638;BME280;13496;51.040;13.680;2023-01-26T12:50:49;100164.44;;;16.09;55.21
25638;BME280;13496;51.040;13.680;2023-01-26T12:55:56;100160.03;;;16.09;55.05
25638;BME280;13496;51.040;13.680;2023-01-26T13:01:08;100153.97;;;16.09;55.16
25638;BME280;13496;51.040;13.680;2023-01-26T13:16:39;100142.53;;;16.10;55.09
25638;BME280;13496;51.040;13.680;2023-01-26T13:21:43;100156.75;;;16.07;55.15
25638;BME280;13496;51.040;13.680;2023-01-26T13:26:49;100157.56;;;16.08;55.13
25638;BME280;13496;51.040;13.680;2023-01-26T13:31:53;100149.06;;;16.06;55.13
25638;BME280;13496;51.040;13.680;2023-01-26T13:37:04;100151.53;;;16.07;55.24
25638;BME280;13496;51.040;13.680;2023-01-26T13:42:18;100148.72;;;16.09;55.07
25638;BME280;13496;51.040;13.680;2023-01-26T13:47:25;100155.13;;;16.06;55.26
25638;BME280;13496;51.040;13.680;2023-01-26T13:52:28;100151.53;;;16.07;55.16
25638;BME280;13496;51.040;13.680;2023-01-26T13:57:30;100156.94;;;16.06;55.14
25638;BME280;13496;51.040;13.680;2023-01-26T14:02:34;100162.16;;;16.06;55.08
25638;BME280;13496;51.040;13.680;2023-01-26T14:07:41;100154.31;;;16.06;55.01
25638;BME280;13496;51.040;13.680;2023-01-26T14:12:51;100153.47;;;16.05;55.10
25638;BME280;13496;51.040;13.680;2023-01-26T14:17:58;100155.44;;;16.03;55.24
25638;BME280;13496;51.040;13.680;2023-01-26T14:23:02;100146.78;;;16.03;54.94
25638;BME280;13496;51.040;13.680;2023-01-26T14:28:13;100147.91;;;16.00;55.10
25638;BME280;13496;51.040;13.680;2023-01-26T14:33:16;100154.94;;;16.00;55.03
25638;BME280;13496;51.040;13.680;2023-01-26T14:38:18;100154.94;;;16.00;55.00
25638;BME280;13496;51.040;13.680;2023-01-26T14:43:21;100151.50;;;15.99;55.07
25638;BME280;13496;51.040;13.680;2023-01-26T14:48:30;100149.03;;;15.97;55.20
25638;BME280;13496;51.040;13.680;2023-01-26T14:53:32;100153.47;;;15.97;55.20
25638;BME280;13496;51.040;13.680;2023-01-26T14:58:41;100151.66;;;15.97;55.08
25638;BME280;13496;51.040;13.680;2023-01-26T15:03:43;100153.31;;;15.99;54.93
25638;BME280;13496;51.040;13.680;2023-01-26T15:08:57;100156.06;;;15.97;55.34
25638;BME280;13496;51.040;13.680;2023-01-26T15:13:59;100167.69;;;15.94;55.19
25638;BME280;13496;51.040;13.680;2023-01-26T15:19:03;100169.66;;;15.92;55.22
25638;BME280;13496;51.040;13.680;2023-01-26T15:24:13;100165.22;;;15.93;55.15
25638;BME280;13496;51.040;13.680;2023-01-26T15:29:29;100165.41;;;15.91;55.17
25638;BME280;13496;51.040;13.680;2023-01-26T15:34:36;100172.25;;;15.92;55.26
25638;BME280;13496;51.040;13.680;2023-01-26T15:39:38;100174.38;;;15.89;55.46
25638;BME280;13496;51.040;13.680;2023-01-26T15:44:39;100173.91;;;15.93;55.32
25638;BME280;13496;51.040;13.680;2023-01-26T15:49:41;100168.16;;;15.90;55.15
25638;BME280;13496;51.040;13.680;2023-01-26T15:54:43;100175.06;;;15.91;55.03
25638;BME280;13496;51.040;13.680;2023-01-26T15:59:44;100182.06;;;15.90;55.18
25638;BME280;13496;51.040;13.680;2023-01-26T16:04:46;100177.81;;;15.89;55.20
25638;BME280;13496;51.040;13.680;2023-01-26T16:09:48;100187.63;;;15.87;55.49
25638;BME280;13496;51.040;13.680;2023-01-26T16:14:51;100191.88;;;15.88;55.10
25638;BME280;13496;51.040;13.680;2023-01-26T16:19:52;100191.88;;;15.88;55.33
25638;BME280;13496;51.040;13.680;2023-01-26T16:24:54;100198.09;;;15.87;55.18
25638;BME280;13496;51.040;13.680;2023-01-26T16:29:56;100198.09;;;15.87;55.31
25638;BME280;13496;51.040;13.680;2023-01-26T16:34:57;100185.16;;;15.86;55.24
25638;BME280;13496;51.040;13.680;2023-01-26T16:39:59;100191.22;;;15.86;55.33
25638;BME280;13496;51.040;13.680;2023-01-26T16:45:01;100197.25;;;15.87;55.21
25638;BME280;13496;51.040;13.680;2023-01-26T16:50:03;100193.19;;;15.84;55.29
25638;BME280;13496;51.040;13.680;2023-01-26T16:55:05;100194.50;;;15.88;55.21
25638;BME280;13496;51.040;13.680;2023-01-26T17:00:16;100188.28;;;15.89;55.06
25638;BME280;13496;51.040;13.680;2023-01-26T17:05:20;100192.53;;;15.90;55.19
25638;BME280;13496;51.040;13.680;2023-01-26T17:10:22;100184.22;;;16.03;54.70
25638;BME280;13496;51.040;13.680;2023-01-26T17:15:24;100194.06;;;16.09;54.31
25638;BME280;13496;51.040;13.680;2023-01-26T17:20:26;100191.91;;;16.13;54.17
25638;BME280;13496;51.040;13.680;2023-01-26T17:25:27;100202.75;;;16.18;53.77
25638;BME280;13496;51.040;13.680;2023-01-26T17:30:29;100192.91;;;16.20;53.30
25638;BME280;13496;51.040;13.680;2023-01-26T17:35:31;100205.69;;;16.23;53.53
25638;BME280;13496;51.040;13.680;2023-01-26T17:40:33;100213.91;;;16.28;53.60
25638;BME280;13496;51.040;13.680;2023-01-26T17:45:35;100210.94;;;16.31;53.26
25638;BME280;13496;51.040;13.680;2023-01-26T17:50:37;100215.84;;;16.34;53.08
25638;BME280;13496;51.040;13.680;2023-01-26T17:55:39;100209.16;;;16.40;53.20
25638;BME280;13496;51.040;13.680;2023-01-26T18:00:41;100210.47;;;16.44;53.00
25638;BME280;13496;51.040;13.680;2023-01-26T18:05:50;100218.81;;;16.48;53.07
25638;BME280;13496;51.040;13.680;2023-01-26T18:11:02;100221.94;;;16.51;52.93
25638;BME280;13496;51.040;13.680;2023-01-26T18:16:06;100219.97;;;16.53;52.98
25638;BME280;13496;51.040;13.680;2023-01-26T18:21:22;100225.69;;;16.57;52.88
25638;BME280;13496;51.040;13.680;2023-01-26T18:26:26;100223.56;;;16.60;52.84
25638;BME280;13496;51.040;13.680;2023-01-26T18:31:30;100225.88;;;16.63;52.45
25638;BME280;13496;51.040;13.680;2023-01-26T18:36:32;100223.09;;;16.65;52.54
25638;BME280;13496;51.040;13.680;2023-01-26T18:41:34;100232.25;;;16.69;52.35
25638;BME280;13496;51.040;13.680;2023-01-26T18:46:36;100232.91;;;16.71;52.32
25638;BME280;13496;51.040;13.680;2023-01-26T18:51:38;100233.72;;;16.72;52.40
25638;BME280;13496;51.040;13.680;2023-01-26T18:56:40;100237.84;;;16.74;52.29
25638;BME280;13496;51.040;13.680;2023-01-26T19:01:41;100238.81;;;16.73;52.29
25638;BME280;13496;51.040;13.680;2023-01-26T19:06:44;100240.28;;;16.76;52.29
25638;BME280;13496;51.040;13.680;2023-01-26T19:11:45;100238.53;;;16.76;52.18
25638;BME280;13496;51.040;13.680;2023-01-26T19:16:47;100237.53;;;16.77;52.39
25638;BME280;13496;51.040;13.680;2023-01-26T19:21:49;100234.09;;;16.77;52.77
25638;BME280;13496;51.040;13.680;2023-01-26T19:26:51;100230.94;;;16.73;52.98
25638;BME280;13496;51.040;13.680;2023-01-26T19:31:52;100232.09;;;16.70;53.15
25638;BME280;13496;51.040;13.680;2023-01-26T19:36:54;100228.81;;;16.68;53.45
25638;BME280;13496;51.040;13.680;2023-01-26T19:41:55;100238.47;;;16.68;53.76
25638;BME280;13496;51.040;13.680;2023-01-26T19:46:57;100230.78;;;16.66;53.56
25638;BME280;13496;51.040;13.680;2023-01-26T19:51:59;100235.03;;;16.59;53.22
25638;BME280;13496;51.040;13.680;2023-01-26T19:57:00;100228.97;;;16.59;53.53
25638;BME280;13496;51.040;13.680;2023-01-26T20:02:02;100230.94;;;16.57;53.34
25638;BME280;13496;51.040;13.680;2023-01-26T20:07:04;100228.16;;;16.58;53.25
25638;BME280;13496;51.040;13.680;2023-01-26T20:12:07;100228.81;;;16.52;53.34
25638;BME280;13496;51.040;13.680;2023-01-26T20:17:09;100235.19;;;16.50;53.57
25638;BME280;13496;51.040;13.680;2023-01-26T20:22:11;100228.31;;;16.49;53.48
25638;BME280;13496;51.040;13.680;2023-01-26T20:27:12;100225.69;;;16.49;53.30
25638;BME280;13496;51.040;13.680;2023-01-26T20:32:14;100221.44;;;16.48;53.60
25638;BME280;13496;51.040;13.680;2023-01-26T20:37:16;100217.19;;;16.47;53.25
25638;BME280;13496;51.040;13.680;2023-01-26T20:42:17;100208.66;;;16.44;53.53
25638;BME280;13496;51.040;13.680;2023-01-26T20:47:19;100196.88;;;16.40;53.64
25638;BME280;13496;51.040;13.680;2023-01-26T20:52:23;100206.38;;;16.41;53.44
25638;BME280;13496;51.040;13.680;2023-01-26T20:57:25;100211.59;;;16.41;53.42
25638;BME280;13496;51.040;13.680;2023-01-26T21:02:27;100211.09;;;16.38;53.41
25638;BME280;13496;51.040;13.680;2023-01-26T21:07:28;100212.09;;;16.37;53.47
25638;BME280;13496;51.040;13.680;2023-01-26T21:12:30;100216.53;;;16.36;53.36
25638;BME280;13496;51.040;13.680;2023-01-26T21:17:34;100231.25;;;16.37;53.41
25638;BME280;13496;51.040;13.680;2023-01-26T21:22:36;100236.47;;;16.37;53.51
25638;BME280;13496;51.040;13.680;2023-01-26T21:27:37;100233.22;;;16.35;53.34
25638;BME280;13496;51.040;13.680;2023-01-26T21:32:39;100229.63;;;16.36;52.86
25638;BME280;13496;51.040;13.680;2023-01-26T21:37:40;100208.16;;;16.33;53.27
25638;BME280;13496;51.040;13.680;2023-01-26T21:42:42;100221.09;;;16.34;53.38
25638;BME280;13496;51.040;13.680;2023-01-26T21:47:44;100221.25;;;16.33;53.31
25638;BME280;13496;51.040;13.680;2023-01-26T21:53:05;100235.16;;;16.33;53.47
25638;BME280;13496;51.040;13.680;2023-01-26T21:58:07;100224.69;;;16.33;53.37
25638;BME280;13496;51.040;13.680;2023-01-26T22:03:27;100229.25;;;16.31;53.22
25638;BME280;13496;51.040;13.680;2023-01-26T22:08:30;100229.13;;;16.33;53.30
25638;BME280;13496;51.040;13.680;2023-01-26T22:13:34;100226.63;;;16.31;53.42
25638;BME280;13496;51.040;13.680;2023-01-26T22:18:36;100230.25;;;16.30;53.40
25638;BME280;13496;51.040;13.680;2023-01-26T22:23:38;100226.00;;;16.29;53.30
25638;BME280;13496;51.040;13.680;2023-01-26T22:28:41;100234.66;;;16.30;53.23
25638;BME280;13496;51.040;13.680;2023-01-26T22:33:45;100213.91;;;16.28;53.16
25638;BME280;13496;51.040;13.680;2023-01-26T22:38:47;100215.66;;;16.28;53.30
25638;BME280;13496;51.040;13.680;2023-01-26T22:43:50;100201.13;;;16.25;53.40
25638;BME280;13496;51.040;13.680;2023-01-26T22:48:54;100204.38;;;16.27;53.42
25638;BME280;13496;51.040;13.680;2023-01-26T22:53:58;100204.38;;;16.27;53.12
25638;BME280;13496;51.040;13.680;2023-01-26T22:58:59;100208.00;;;16.26;53.38
25638;BME280;13496;51.040;13.680;2023-01-26T23:04:01;100212.59;;;16.24;53.29
25638;BME280;13496;51.040;13.680;2023-01-26T23:09:03;100210.94;;;16.23;53.22
25638;BME280;13496;51.040;13.680;2023-01-26T23:14:05;100217.16;;;16.22;53.18
25638;BME280;13496;51.040;13.680;2023-01-26T23:19:06;100218.63;;;16.25;53.08
25638;BME280;13496;51.040;13.680;2023-01-26T23:24:08;100215.19;;;16.24;53.20
25638;BME280;13496;51.040;13.680;2023-01-26T23:29:09;100219.75;;;16.22;53.22
25638;BME280;13496;51.040;13.680;2023-01-26T23:34:11;100217.97;;;16.23;53.10
25638;BME280;13496;51.040;13.680;2023-01-26T23:39:13;100214.53;;;16.22;53.08
25638;BME280;13496;51.040;13.680;2023-01-26T23:44:14;100208.63;;;16.20;52.78
25638;BME280;13496;51.040;13.680;2023-01-26T23:49:16;100208.63;;;16.20;53.07
25638;BME280;13496;51.040;13.680;2023-01-26T23:54:18;100208.63;;;16.20;53.13
25638;BME280;13496;51.040;13.680;2023-01-26T23:59:19;100209.63;;;16.19;53.07
